Time;durP1;ratioP1;P1;durP2;ratioP2;P2;SDS_P1;SDS_P2;PMS_P1;PMS_P2;Temp;Humidity;BMP_temperature;BMP_pressure;BME280_temperature;BME280_humidity;BME280_pressure;Samples;Min_cycle;Max_cycle;Signal;HPM_P1;HPM_P2
2023/07/15 00:01:14;;;;;;;6.15;3.00;;;19.90;99.90;;;;;;5016978;28;20206;-66
2023/07/15 00:03:41;;;;;;;5.03;3.22;;;19.90;99.90;;;;;;5005115;28;20201;-66
2023/07/15 00:06:10;;;;;;;6.85;3.38;;;19.80;99.90;;;;;;5001797;28;20205;-66
2023/07/15 00:08:36;;;;;;;4.88;3.28;;;19.80;99.90;;;;;;5013599;28;20211;-66
2023/07/15 00:11:04;;;;;;;4.90;2.95;;;19.80;99.90;;;;;;5009312;28;20848;-66
2023/07/15 00:13:32;;;;;;;4.15;2.90;;;19.80;99.90;;;;;;4999203;28;20687;-66
2023/07/15 00:15:59;;;;;;;5.32;3.30;;;19.70;99.90;;;;;;5020179;28;20221;-66
2023/07/15 00:18:26;;;;;;;5.50;2.90;;;19.70;99.90;;;;;;5002901;28;20202;-66
2023/07/15 00:20:53;;;;;;;4.53;3.10;;;19.70;99.90;;;;;;5006469;28;20619;-66
2023/07/15 00:23:21;;;;;;;4.30;3.03;;;19.70;99.90;;;;;;5026314;28;20298;-66
2023/07/15 00:25:50;;;;;;;3.63;2.90;;;19.70;99.90;;;;;;5014087;28;20208;-67
2023/07/15 00:28:17;;;;;;;3.53;3.08;;;19.70;99.90;;;;;;5026205;28;20570;-66
2023/07/15 00:30:46;;;;;;;4.10;2.92;;;20.00;99.90;;;;;;4997907;28;20213;-66
2023/07/15 00:33:15;;;;;;;6.82;3.35;;;19.50;99.90;;;;;;5004982;28;20208;-66
2023/07/15 00:35:43;;;;;;;4.10;3.22;;;19.70;99.90;;;;;;5016365;28;20232;-66
2023/07/15 00:38:10;;;;;;;5.50;2.85;;;19.70;99.90;;;;;;5010545;28;20630;-66
2023/07/15 00:40:41;;;;;;;5.25;3.58;;;19.60;99.90;;;;;;5024492;28;20907;-66
2023/07/15 00:43:45;;;;;;;4.95;3.20;;;19.70;99.90;;;;;;5014558;28;20219;-66
2023/07/15 00:46:39;;;;;;;3.97;2.80;;;19.70;99.90;;;;;;5002543;28;20220;-66
2023/07/15 00:49:11;;;;;;;4.88;3.20;;;19.60;99.90;;;;;;5003629;28;20205;-66
2023/07/15 00:51:40;;;;;;;7.13;2.90;;;19.90;99.90;;;;;;5004259;28;20686;-66
2023/07/15 00:54:09;;;;;;;3.08;2.70;;;19.80;99.90;;;;;;5007953;28;21398;-66
2023/07/15 00:56:38;;;;;;;4.60;2.92;;;19.70;99.90;;;;;;5017406;28;20320;-66
2023/07/15 00:59:07;;;;;;;4.97;2.60;;;19.70;99.90;;;;;;4999850;28;20208;-66
2023/07/15 01:01:36;;;;;;;6.15;2.97;;;19.80;99.90;;;;;;4997090;28;20210;-66
2023/07/15 01:04:03;;;;;;;3.72;2.70;;;19.70;99.90;;;;;;5018039;28;20198;-66
2023/07/15 01:06:33;;;;;;;10.27;3.20;;;19.70;99.90;;;;;;4993023;28;20202;-66
2023/07/15 01:09:00;;;;;;;5.20;2.80;;;19.70;99.90;;;;;;5008108;28;20202;-67
2023/07/15 01:11:29;;;;;;;4.13;3.15;;;19.70;99.90;;;;;;5014537;28;20199;-66
2023/07/15 01:13:56;;;;;;;3.60;2.78;;;19.80;99.90;;;;;;5014995;28;20680;-66
2023/07/15 01:16:24;;;;;;;3.22;2.92;;;19.70;99.90;;;;;;5027909;28;20383;-66
2023/07/15 01:18:52;;;;;;;5.97;3.30;;;19.70;99.90;;;;;;4996311;28;20213;-66
2023/07/15 01:21:21;;;;;;;4.53;2.85;;;19.60;99.90;;;;;;5008273;28;20210;-66
2023/07/15 01:23:49;;;;;;;6.90;2.97;;;18.70;99.90;;;;;;5005669;28;20999;-66
2023/07/15 01:26:16;;;;;;;5.00;3.10;;;19.50;99.90;;;;;;5023789;28;20201;-66
2023/07/15 01:28:43;;;;;;;3.50;2.70;;;19.60;99.90;;;;;;5016823;28;20201;-66
2023/07/15 01:31:09;;;;;;;4.35;2.75;;;19.60;99.90;;;;;;5018522;28;20231;-66
2023/07/15 01:33:37;;;;;;;3.70;2.85;;;19.50;99.90;;;;;;4998565;28;20222;-66
2023/07/15 01:36:04;;;;;;;2.90;2.55;;;19.20;99.90;;;;;;5004296;28;20371;-66
2023/07/15 01:38:31;;;;;;;5.75;2.78;;;19.50;99.90;;;;;;5011404;28;20229;-66
2023/07/15 01:41:00;;;;;;;12.23;3.15;;;19.40;99.90;;;;;;5015477;28;20303;-66
2023/07/15 01:43:26;;;;;;;8.05;2.90;;;19.40;99.90;;;;;;5021381;28;20227;-66
2023/07/15 01:45:53;;;;;;;5.43;3.13;;;19.50;99.90;;;;;;5005309;28;20916;-66
2023/07/15 01:48:20;;;;;;;3.38;2.92;;;19.40;99.90;;;;;;5000189;28;20790;-66
2023/07/15 01:50:48;;;;;;;3.63;2.70;;;19.50;99.90;;;;;;5007347;28;20306;-66
2023/07/15 01:53:15;;;;;;;8.48;3.20;;;19.40;99.90;;;;;;5006302;28;20714;-66
2023/07/15 01:55:42;;;;;;;4.95;3.03;;;18.60;99.90;;;;;;5018366;28;20199;-66
2023/07/15 01:58:10;;;;;;;4.05;3.03;;;19.30;99.90;;;;;;5017512;28;20227;-66
2023/07/15 02:00:37;;;;;;;4.10;3.00;;;19.30;99.90;;;;;;5019838;28;20735;-66
2023/07/15 02:03:04;;;;;;;4.03;2.70;;;19.10;99.90;;;;;;4980269;28;20214;-66
2023/07/15 02:05:31;;;;;;;3.67;2.90;;;19.20;99.90;;;;;;5023302;28;20201;-66
2023/07/15 02:07:58;;;;;;;3.40;2.90;;;19.20;99.90;;;;;;4986259;28;20201;-66
2023/07/15 02:10:25;;;;;;;4.10;3.53;;;19.20;99.90;;;;;;5007199;28;20745;-66
2023/07/15 02:12:52;;;;;;;4.38;3.15;;;19.10;99.90;;;;;;5011896;28;20204;-66
2023/07/15 02:15:20;;;;;;;4.65;3.05;;;19.00;99.90;;;;;;5019806;28;20976;-66
2023/07/15 02:17:46;;;;;;;6.50;3.17;;;19.00;99.90;;;;;;5000980;28;20229;-66
2023/07/15 02:20:13;;;;;;;4.68;3.05;;;18.90;99.90;;;;;;4997570;28;21455;-66
2023/07/15 02:22:41;;;;;;;4.93;2.92;;;18.90;99.90;;;;;;5014787;28;20204;-66
2023/07/15 02:25:09;;;;;;;4.13;2.80;;;18.90;99.90;;;;;;5012752;28;20224;-66
2023/07/15 02:27:35;;;;;;;8.30;3.20;;;18.90;99.90;;;;;;5027425;28;20231;-65
2023/07/15 02:30:04;;;;;;;4.25;3.30;;;19.10;99.90;;;;;;5025613;28;20934;-66
2023/07/15 02:32:40;;;;;;;5.15;2.80;;;18.80;99.90;;;;;;5013055;28;21215;-66
2023/07/15 02:35:12;;;;;;;4.60;2.90;;;18.90;99.90;;;;;;4982984;28;20386;-66
2023/07/15 02:37:39;;;;;;;5.28;2.80;;;18.80;99.90;;;;;;5004969;28;20241;-65
2023/07/15 02:40:09;;;;;;;5.82;3.10;;;18.80;99.90;;;;;;4997632;28;20718;-66
2023/07/15 02:42:36;;;;;;;4.22;2.75;;;18.80;99.90;;;;;;5011945;28;20910;-65
2023/07/15 02:45:04;;;;;;;5.10;2.70;;;18.70;99.90;;;;;;5020018;28;20980;-66
2023/07/15 02:47:31;;;;;;;7.85;3.08;;;18.80;99.90;;;;;;5012334;28;20436;-66
2023/07/15 02:50:03;;;;;;;4.97;2.92;;;18.70;99.90;;;;;;4999186;28;20213;-66
2023/07/15 02:52:30;;;;;;;5.50;2.83;;;18.70;99.90;;;;;;5005467;28;20824;-66
2023/07/15 02:54:57;;;;;;;3.92;2.63;;;18.70;99.90;;;;;;5009000;28;20198;-66
2023/07/15 02:57:23;;;;;;;3.63;2.95;;;18.80;99.90;;;;;;4999904;28;20353;-66
2023/07/15 02:59:50;;;;;;;7.15;3.15;;;18.70;99.90;;;;;;5021987;28;20198;-66
2023/07/15 03:02:17;;;;;;;4.88;2.78;;;18.60;99.90;;;;;;5020224;28;20200;-66
2023/07/15 03:04:44;;;;;;;4.72;2.83;;;18.60;99.90;;;;;;4986011;28;20221;-65
2023/07/15 03:07:13;;;;;;;4.43;2.78;;;18.60;99.90;;;;;;5002040;28;20197;-66
2023/07/15 03:09:40;;;;;;;4.47;2.65;;;18.00;99.90;;;;;;5007361;28;20198;-66
2023/07/15 03:12:08;;;;;;;4.53;2.78;;;18.60;99.90;;;;;;5007570;28;20749;-66
2023/07/15 03:14:35;;;;;;;5.05;2.85;;;18.50;99.90;;;;;;5010576;28;20206;-66
2023/07/15 03:17:02;;;;;;;6.18;3.13;;;18.60;99.90;;;;;;5018793;28;20737;-66
2023/07/15 03:19:30;;;;;;;3.65;2.25;;;18.60;99.90;;;;;;5011706;28;20220;-66
2023/07/15 03:21:57;;;;;;;4.45;2.67;;;18.60;99.90;;;;;;4998142;28;20220;-66
2023/07/15 03:24:25;;;;;;;3.95;2.60;;;18.60;99.90;;;;;;5006090;28;20233;-65
2023/07/15 03:26:52;;;;;;;4.68;2.80;;;18.80;99.90;;;;;;4994397;28;20322;-65
2023/07/15 03:29:19;;;;;;;3.38;2.63;;;18.60;99.90;;;;;;5009191;28;20230;-65
2023/07/15 03:31:45;;;;;;;5.15;2.78;;;18.60;99.90;;;;;;5020565;28;20204;-66
2023/07/15 03:34:12;;;;;;;4.20;2.72;;;18.60;99.90;;;;;;5008169;28;20213;-65
2023/07/15 03:36:39;;;;;;;3.88;2.90;;;18.60;99.90;;;;;;4992603;28;20237;-66
2023/07/15 03:39:06;;;;;;;6.22;2.80;;;18.60;99.90;;;;;;5006210;28;20198;-66
2023/07/15 03:41:34;;;;;;;4.78;2.80;;;18.50;99.90;;;;;;5010296;28;20193;-66
2023/07/15 03:44:01;;;;;;;3.03;2.63;;;18.50;99.90;;;;;;4998772;28;20214;-65
2023/07/15 03:46:28;;;;;;;6.22;2.80;;;18.50;99.90;;;;;;5022888;28;20197;-65
2023/07/15 03:48:55;;;;;;;4.30;3.00;;;18.50;99.90;;;;;;5020410;28;20205;-65
2023/07/15 03:51:22;;;;;;;3.83;2.85;;;18.40;99.90;;;;;;5012471;28;20229;-66
2023/07/15 03:53:49;;;;;;;6.82;2.65;;;18.40;99.90;;;;;;4990100;28;20232;-66
2023/07/15 03:56:16;;;;;;;3.90;2.47;;;18.50;99.90;;;;;;5003966;28;20287;-65
2023/07/15 03:58:44;;;;;;;4.43;2.55;;;18.40;99.90;;;;;;5008165;28;20698;-66
2023/07/15 04:01:11;;;;;;;4.40;2.60;;;18.40;99.90;;;;;;5012858;28;20204;-66
2023/07/15 04:03:38;;;;;;;5.97;2.90;;;18.40;99.90;;;;;;5023664;28;20208;-66
2023/07/15 04:06:04;;;;;;;11.40;2.90;;;18.40;99.90;;;;;;4999080;28;20578;-66
2023/07/15 04:08:30;;;;;;;7.43;2.83;;;18.40;99.90;;;;;;5000388;28;20221;-65
2023/07/15 04:10:57;;;;;;;6.38;3.00;;;18.40;99.90;;;;;;5005174;28;20687;-65
2023/07/15 04:13:24;;;;;;;4.75;2.85;;;18.50;99.90;;;;;;5019746;28;20288;-66
2023/07/15 04:15:52;;;;;;;3.42;2.70;;;18.40;99.90;;;;;;4996261;28;20213;-66
2023/07/15 04:18:19;;;;;;;5.65;2.95;;;18.40;99.90;;;;;;5018576;28;20762;-66
2023/07/15 04:20:45;;;;;;;10.75;2.85;;;18.40;99.90;;;;;;5024330;28;20465;-66
2023/07/15 04:23:12;;;;;;;4.05;2.55;;;18.50;99.90;;;;;;4997378;28;20213;-66
2023/07/15 04:25:40;;;;;;;5.32;2.97;;;18.40;99.90;;;;;;5002494;28;20704;-65
2023/07/15 04:28:06;;;;;;;5.45;2.70;;;18.50;99.90;;;;;;5021052;28;20987;-66
2023/07/15 04:30:33;;;;;;;4.07;2.33;;;18.60;99.90;;;;;;4997889;28;20229;-65
2023/07/15 04:33:02;;;;;;;2.65;2.15;;;18.60;99.90;;;;;;5025454;28;20691;-66
2023/07/15 04:35:29;;;;;;;6.03;3.10;;;18.70;99.90;;;;;;5018498;28;20225;-66
2023/07/15 04:37:56;;;;;;;3.50;2.50;;;18.70;99.90;;;;;;5011753;28;20229;-65
2023/07/15 04:40:23;;;;;;;3.28;2.47;;;18.80;99.90;;;;;;4983061;28;24432;-65
2023/07/15 04:42:49;;;;;;;5.97;2.10;;;18.80;99.90;;;;;;5024429;28;20208;-66
2023/07/15 04:45:16;;;;;;;4.63;2.72;;;18.80;99.90;;;;;;5008936;28;20214;-66
2023/07/15 04:47:43;;;;;;;2.05;1.90;;;18.90;99.90;;;;;;5006763;28;20206;-66
2023/07/15 04:50:11;;;;;;;2.80;2.15;;;19.00;99.90;;;;;;5021380;28;20202;-65
2023/07/15 04:52:38;;;;;;;5.00;2.33;;;19.00;99.90;;;;;;5008467;28;20585;-65
2023/07/15 04:55:06;;;;;;;5.30;2.20;;;19.20;99.90;;;;;;4998927;28;20725;-65
2023/07/15 04:57:32;;;;;;;5.47;2.55;;;19.00;99.90;;;;;;5003761;28;20225;-66
2023/07/15 04:59:59;;;;;;;4.63;2.47;;;19.10;99.90;;;;;;4999138;28;20201;-65
2023/07/15 05:02:26;;;;;;;2.20;2.00;;;19.10;99.90;;;;;;5009561;28;20204;-65
2023/07/15 05:04:53;;;;;;;3.65;2.17;;;19.10;99.90;;;;;;5015284;28;20208;-66
2023/07/15 05:07:21;;;;;;;5.43;3.17;;;19.10;99.90;;;;;;5009295;28;20769;-66
2023/07/15 05:09:50;;;;;;;4.57;2.45;;;19.20;99.90;;;;;;5005559;28;20212;-66
2023/07/15 05:12:17;;;;;;;4.18;2.42;;;19.20;99.90;;;;;;4997825;28;20237;-65
2023/07/15 05:14:44;;;;;;;4.07;2.17;;;19.20;99.90;;;;;;5021067;28;20628;-65
2023/07/15 05:17:11;;;;;;;4.25;1.95;;;19.30;99.90;;;;;;4991173;28;20702;-67
2023/07/15 05:19:38;;;;;;;4.18;2.28;;;19.30;99.90;;;;;;5014820;28;20570;-66
2023/07/15 05:22:06;;;;;;;6.70;2.58;;;19.40;99.90;;;;;;5006369;28;20204;-66
2023/07/15 05:24:35;;;;;;;3.25;2.08;;;19.40;99.90;;;;;;5017522;28;20198;-66
2023/07/15 05:27:02;;;;;;;6.07;2.53;;;19.40;99.90;;;;;;4995178;28;20228;-66
2023/07/15 05:29:28;;;;;;;4.60;2.30;;;19.40;99.90;;;;;;5019836;28;20197;-66
2023/07/15 05:31:55;;;;;;;4.80;2.00;;;19.60;99.90;;;;;;5003339;28;20201;-66
2023/07/15 05:34:22;;;;;;;4.75;2.17;;;19.70;99.90;;;;;;4990728;28;20226;-65
2023/07/15 05:36:50;;;;;;;4.93;2.28;;;19.90;99.90;;;;;;5011775;28;20226;-66
2023/07/15 05:39:19;;;;;;;4.80;2.22;;;19.60;99.90;;;;;;4991917;28;21245;-66
2023/07/15 05:41:47;;;;;;;3.42;2.45;;;19.60;99.90;;;;;;5010754;28;20212;-66
2023/07/15 05:44:14;;;;;;;3.50;2.20;;;19.70;99.90;;;;;;5000312;28;20590;-66
2023/07/15 05:46:40;;;;;;;3.42;2.25;;;19.70;99.90;;;;;;5010691;28;20292;-66
2023/07/15 05:49:07;;;;;;;4.32;2.38;;;19.70;99.90;;;;;;4996513;28;21109;-66
2023/07/15 05:51:34;;;;;;;2.63;2.25;;;19.80;99.90;;;;;;5020617;28;20201;-66
2023/07/15 05:54:01;;;;;;;4.53;2.30;;;19.80;99.90;;;;;;4987098;28;20213;-66
2023/07/15 05:56:28;;;;;;;2.70;2.22;;;19.90;99.90;;;;;;5008496;28;20214;-65
2023/07/15 05:58:56;;;;;;;5.50;3.30;;;19.90;99.90;;;;;;4977752;28;20215;-65
2023/07/15 06:01:23;;;;;;;3.10;2.42;;;20.00;99.90;;;;;;4997741;28;20216;-66
2023/07/15 06:03:50;;;;;;;3.60;2.05;;;20.00;99.90;;;;;;4999930;28;20201;-65
2023/07/15 06:06:16;;;;;;;5.63;2.38;;;20.00;99.90;;;;;;4986755;28;20222;-66
2023/07/15 06:08:45;;;;;;;2.33;1.80;;;20.10;99.90;;;;;;5009398;28;22514;-66
2023/07/15 06:11:12;;;;;;;5.57;2.53;;;20.20;99.90;;;;;;5013315;28;20642;-66
2023/07/15 06:13:39;;;;;;;4.25;2.45;;;20.30;99.90;;;;;;4990947;28;20243;-66
2023/07/15 06:16:07;;;;;;;10.30;2.33;;;20.30;99.90;;;;;;5003440;28;20206;-65
2023/07/15 06:18:34;;;;;;;4.53;2.22;;;20.40;99.90;;;;;;5006881;28;20694;-66
2023/07/15 06:21:01;;;;;;;4.40;1.85;;;20.40;99.90;;;;;;5022321;28;20790;-66
2023/07/15 06:23:27;;;;;;;2.30;1.90;;;20.50;99.90;;;;;;5009004;28;20608;-66
2023/07/15 06:25:56;;;;;;;5.82;2.28;;;20.50;99.90;;;;;;5024008;28;20212;-65
2023/07/15 06:28:23;;;;;;;9.10;2.50;;;20.50;99.90;;;;;;5002074;28;21558;-65
2023/07/15 06:30:50;;;;;;;2.15;1.95;;;20.70;99.90;;;;;;5011988;28;20228;-66
2023/07/15 06:33:18;;;;;;;3.25;2.00;;;17.10;99.90;;;;;;5013382;28;20214;-66
2023/07/15 06:35:45;;;;;;;2.13;1.75;;;20.80;99.90;;;;;;5010061;28;21117;-66
2023/07/15 06:38:12;;;;;;;3.65;1.90;;;20.60;99.90;;;;;;5006577;28;20230;-67
2023/07/15 06:40:39;;;;;;;2.60;1.90;;;20.80;99.90;;;;;;5016979;28;20734;-66
2023/07/15 06:43:05;;;;;;;3.42;2.20;;;20.80;99.90;;;;;;5018214;28;20226;-66
2023/07/15 06:45:33;;;;;;;2.35;2.00;;;20.80;99.90;;;;;;4985609;28;20365;-66
2023/07/15 06:48:00;;;;;;;5.07;2.25;;;20.70;99.90;;;;;;5020223;28;20197;-66
2023/07/15 06:50:29;;;;;;;5.30;2.40;;;20.80;99.90;;;;;;5004165;28;20310;-65
2023/07/15 06:52:56;;;;;;;4.00;2.10;;;20.80;99.90;;;;;;5009399;28;20233;-65
2023/07/15 06:55:23;;;;;;;3.55;1.95;;;20.80;99.90;;;;;;5017355;28;20361;-66
2023/07/15 06:57:50;;;;;;;3.63;2.30;;;;;;;;;;5019029;28;20233;-66
2023/07/15 07:00:17;;;;;;;7.43;1.92;;;21.00;99.90;;;;;;4995814;28;20218;-66
2023/07/15 07:02:44;;;;;;;5.80;2.33;;;21.00;99.90;;;;;;5002980;28;20231;-66
2023/07/15 07:05:10;;;;;;;2.38;1.70;;;21.00;99.90;;;;;;5001748;28;20226;-66
2023/07/15 07:07:38;;;;;;;2.25;2.00;;;21.20;99.90;;;;;;4988440;28;20225;-66
2023/07/15 07:10:06;;;;;;;4.65;2.03;;;21.30;99.90;;;;;;5002455;28;20202;-67
2023/07/15 07:12:33;;;;;;;4.03;2.08;;;21.30;99.90;;;;;;5012456;28;20229;-67
2023/07/15 07:15:00;;;;;;;3.13;1.95;;;21.40;99.90;;;;;;5010787;28;20206;-66
2023/07/15 07:17:28;;;;;;;2.42;1.90;;;21.50;99.90;;;;;;4989986;28;20958;-65
2023/07/15 07:19:55;;;;;;;2.65;1.85;;;21.50;99.90;;;;;;5004268;28;20213;-66
2023/07/15 07:22:22;;;;;;;7.25;2.00;;;21.60;99.90;;;;;;5002192;28;20204;-66
2023/07/15 07:24:52;;;;;;;2.35;2.00;;;21.70;99.90;;;;;;4984875;28;20206;-66
2023/07/15 07:27:19;;;;;;;3.55;2.00;;;21.80;99.90;;;;;;5003977;28;20222;-66
2023/07/15 07:29:46;;;;;;;3.67;1.95;;;21.90;99.90;;;;;;5011329;28;20228;-65
2023/07/15 07:32:12;;;;;;;3.10;1.98;;;21.90;99.90;;;;;;4984269;28;20229;-66
2023/07/15 07:34:39;;;;;;;4.13;2.00;;;21.90;99.90;;;;;;5017334;28;20220;-66
2023/07/15 07:37:06;;;;;;;4.78;2.30;;;22.00;99.90;;;;;;5001166;28;20202;-66
2023/07/15 07:39:33;;;;;;;3.85;2.08;;;22.00;99.90;;;;;;5001031;28;20229;-66
2023/07/15 07:42:01;;;;;;;8.65;2.00;;;22.10;99.90;;;;;;4992583;28;20202;-66
2023/07/15 07:44:28;;;;;;;4.00;1.90;;;22.10;99.90;;;;;;4982524;28;20225;-66
2023/07/15 07:46:55;;;;;;;3.05;1.90;;;22.10;99.90;;;;;;4972641;28;20225;-66
2023/07/15 07:49:22;;;;;;;6.22;2.13;;;22.20;99.90;;;;;;4987057;28;20229;-66
2023/07/15 07:51:49;;;;;;;4.00;2.00;;;22.20;99.90;;;;;;4991514;28;20226;-66
2023/07/15 07:54:15;;;;;;;4.63;2.35;;;22.40;99.90;;;;;;4989994;28;20198;-66
2023/07/15 07:56:42;;;;;;;2.60;1.80;;;22.40;99.90;;;;;;4997833;28;21181;-66
2023/07/15 07:59:10;;;;;;;4.80;2.50;;;22.40;99.90;;;;;;5018358;28;20244;-66
2023/07/15 08:01:37;;;;;;;3.05;1.70;;;22.40;99.90;;;;;;5003479;28;20209;-66
2023/07/15 08:04:04;;;;;;;4.72;2.10;;;22.60;99.90;;;;;;4954807;28;20225;-66
2023/07/15 08:06:31;;;;;;;2.90;2.08;;;22.50;99.90;;;;;;4990128;28;20229;-66
2023/07/15 08:08:58;;;;;;;1.95;1.73;;;22.50;99.90;;;;;;4980028;28;20226;-66
2023/07/15 08:11:24;;;;;;;2.22;1.90;;;22.60;99.90;;;;;;5006761;28;23137;-66
2023/07/15 08:13:53;;;;;;;4.55;1.88;;;22.60;99.90;;;;;;5008847;28;20215;-66
2023/07/15 08:16:31;;;;;;;3.00;2.15;;;22.60;99.90;;;;;;5017583;28;20237;-66
2023/07/15 08:18:59;;;;;;;2.45;1.90;;;22.70;99.90;;;;;;4985204;28;20272;-66
2023/07/15 08:21:26;;;;;;;4.00;2.45;;;22.80;99.90;;;;;;4998903;28;20594;-66
2023/07/15 08:23:53;;;;;;;6.05;2.58;;;22.80;99.90;;;;;;4973466;28;20220;-66
2023/07/15 08:26:20;;;;;;;2.65;1.88;;;22.90;99.90;;;;;;5007896;28;20324;-66
2023/07/15 08:28:47;;;;;;;5.55;2.17;;;22.80;99.90;;;;;;5016439;28;20202;-66
2023/07/15 08:31:14;;;;;;;4.05;2.10;;;22.90;99.90;;;;;;5016306;28;20233;-66
2023/07/15 08:33:43;;;;;;;4.35;2.00;;;23.00;99.90;;;;;;5000217;28;20209;-66
2023/07/15 08:36:10;;;;;;;6.20;2.10;;;23.00;99.90;;;;;;5001488;28;20217;-66
2023/07/15 08:38:37;;;;;;;4.40;2.10;;;23.10;99.90;;;;;;5003306;28;20726;-66
2023/07/15 08:41:03;;;;;;;3.05;2.03;;;23.10;99.90;;;;;;4989461;28;20624;-66
2023/07/15 08:43:31;;;;;;;4.93;2.15;;;23.10;99.90;;;;;;4991821;28;20197;-66
2023/07/15 08:46:01;;;;;;;3.80;1.92;;;23.20;99.90;;;;;;4997521;28;20836;-66
2023/07/15 08:48:28;;;;;;;5.43;1.85;;;23.30;99.90;;;;;;4983304;28;20233;-66
2023/07/15 08:50:58;;;;;;;2.65;2.00;;;;;;;;;;4986501;28;20702;-66
2023/07/15 08:53:26;;;;;;;2.55;1.98;;;22.50;99.90;;;;;;4995947;28;20229;-66
2023/07/15 08:55:55;;;;;;;3.40;2.17;;;23.30;99.90;;;;;;4992607;28;20256;-66
2023/07/15 08:58:22;;;;;;;4.25;1.90;;;23.40;99.90;;;;;;4987613;28;20778;-66
2023/07/15 09:00:50;;;;;;;3.47;2.30;;;23.40;99.90;;;;;;5015812;28;20198;-66
2023/07/15 09:03:17;;;;;;;4.00;2.22;;;23.60;99.90;;;;;;5011160;28;20776;-66
2023/07/15 09:05:44;;;;;;;4.03;2.10;;;23.70;99.90;;;;;;4979976;28;20225;-66
2023/07/15 09:08:15;;;;;;;5.15;2.20;;;23.70;99.90;;;;;;4992278;28;20236;-66
2023/07/15 09:10:52;;;;;;;10.77;2.30;;;23.70;99.90;;;;;;4972169;28;20236;-66
2023/07/15 09:13:24;;;;;;;3.25;2.03;;;23.70;99.90;;;;;;4988109;28;20841;-66
2023/07/15 09:15:51;;;;;;;3.03;2.42;;;23.70;99.90;;;;;;5002348;28;20270;-65
2023/07/15 09:18:18;;;;;;;3.35;1.98;;;23.80;99.90;;;;;;5010533;28;20217;-66
2023/07/15 09:20:44;;;;;;;3.00;2.17;;;23.90;99.90;;;;;;4989164;28;20237;-66
2023/07/15 09:23:13;;;;;;;2.80;2.00;;;23.90;99.90;;;;;;4994581;28;20217;-66
2023/07/15 09:25:50;;;;;;;2.33;1.92;;;23.90;99.90;;;;;;4974751;28;20279;-66
2023/07/15 09:28:18;;;;;;;3.40;2.08;;;24.00;99.90;;;;;;4975777;28;20228;-69
2023/07/15 09:30:45;;;;;;;3.78;2.10;;;24.00;99.90;;;;;;5001429;28;20231;-66
2023/07/15 09:33:29;;;;;;;3.88;2.08;;;24.20;99.90;;;;;;5004605;28;20218;-66
2023/07/15 09:35:56;;;;;;;5.13;2.10;;;24.30;99.90;;;;;;4978405;28;20241;-66
2023/07/15 09:38:24;;;;;;;3.00;2.42;;;24.30;99.90;;;;;;5011154;28;20221;-66
2023/07/15 09:40:51;;;;;;;4.78;1.75;;;24.40;99.90;;;;;;4988826;28;20229;-66
2023/07/15 09:43:17;;;;;;;2.30;1.63;;;24.50;99.90;;;;;;4985741;28;20240;-66
2023/07/15 09:45:45;;;;;;;3.45;1.98;;;24.50;99.90;;;;;;4996607;28;20222;-66
2023/07/15 09:48:13;;;;;;;3.42;1.88;;;24.60;99.90;;;;;;5014869;28;20246;-66
2023/07/15 09:50:42;;;;;;;2.63;1.90;;;24.60;99.90;;;;;;4976124;28;20210;-66
2023/07/15 09:53:09;;;;;;;2.95;1.90;;;24.70;99.90;;;;;;5000711;28;20291;-66
2023/07/15 09:55:38;;;;;;;2.53;2.00;;;24.70;99.90;;;;;;5004168;28;20671;-66
2023/07/15 09:58:19;;;;;;;2.35;1.80;;;24.90;99.90;;;;;;4979230;28;20205;-66
2023/07/15 10:00:51;;;;;;;3.38;2.08;;;24.80;99.90;;;;;;5008579;28;20229;-66
2023/07/15 10:03:24;;;;;;;2.17;1.90;;;24.90;99.90;;;;;;5003911;28;20220;-66
2023/07/15 10:05:52;;;;;;;1.85;1.73;;;25.00;99.90;;;;;;4997836;28;20209;-66
2023/07/15 10:08:19;;;;;;;3.95;2.10;;;24.90;99.90;;;;;;5001308;28;20738;-66
2023/07/15 10:10:50;;;;;;;4.20;2.20;;;24.90;99.90;;;;;;5014821;28;20574;-66
2023/07/15 10:13:17;;;;;;;3.85;2.10;;;24.90;99.90;;;;;;4989369;28;20201;-66
2023/07/15 10:15:45;;;;;;;4.40;1.95;;;24.90;99.90;;;;;;4994222;28;20629;-66
2023/07/15 10:18:14;;;;;;;7.13;2.00;;;24.90;99.90;;;;;;5011083;28;20202;-66
2023/07/15 10:20:43;;;;;;;4.40;2.03;;;23.50;99.90;;;;;;5016378;28;21171;-66
2023/07/15 10:23:11;;;;;;;6.00;1.88;;;25.00;99.90;;;;;;4971566;28;20236;-66
2023/07/15 10:25:41;;;;;;;2.58;1.77;;;25.20;99.90;;;;;;5000217;28;20256;-67
2023/07/15 10:28:13;;;;;;;2.33;1.92;;;25.20;99.90;;;;;;4981759;28;21734;-66
2023/07/15 10:31:01;;;;;;;5.20;2.35;;;25.40;99.90;;;;;;5002514;28;20233;-66
2023/07/15 10:33:27;;;;;;;2.78;1.65;;;25.40;99.90;;;;;;4999824;28;20358;-66
2023/07/15 10:35:54;;;;;;;3.40;1.92;;;25.40;99.90;;;;;;5016382;28;20232;-66
2023/07/15 10:38:23;;;;;;;4.63;1.95;;;25.40;99.90;;;;;;4973530;28;20259;-65
2023/07/15 10:40:50;;;;;;;5.05;2.67;;;25.40;99.90;;;;;;5012146;28;20233;-66
2023/07/15 10:43:21;;;;;;;4.00;1.98;;;25.40;99.90;;;;;;4979750;28;20221;-67
2023/07/15 10:45:52;;;;;;;5.40;1.80;;;25.50;99.90;;;;;;4965645;28;20229;-67
2023/07/15 10:48:19;;;;;;;1.80;1.60;;;25.60;99.90;;;;;;4987847;28;20279;-67
2023/07/15 10:50:48;;;;;;;3.35;2.15;;;25.70;99.90;;;;;;4996618;28;20607;-66
2023/07/15 10:53:23;;;;;;;5.13;1.98;;;25.90;99.90;;;;;;4980147;28;20233;-66
2023/07/15 10:55:58;;;;;;;2.00;1.75;;;25.90;99.90;;;;;;5008463;28;20260;-66
2023/07/15 10:58:26;;;;;;;1.98;1.60;;;25.80;99.90;;;;;;4973351;28;20722;-66
2023/07/15 11:01:00;;;;;;;2.15;1.60;;;25.70;99.90;;;;;;4980093;28;21285;-65
2023/07/15 11:03:27;;;;;;;1.95;1.75;;;25.70;99.90;;;;;;4976553;28;22235;-66
2023/07/15 11:05:58;;;;;;;3.05;1.80;;;25.60;99.90;;;;;;4986828;28;20737;-66
2023/07/15 11:08:26;;;;;;;4.50;2.13;;;25.60;99.90;;;;;;4959841;28;20234;-66
2023/07/15 11:10:59;;;;;;;2.88;1.77;;;25.70;99.90;;;;;;5008143;28;20224;-66
2023/07/15 11:13:28;;;;;;;5.63;1.98;;;25.60;99.90;;;;;;4955645;28;20918;-66
2023/07/15 11:15:55;;;;;;;3.22;2.08;;;25.60;99.90;;;;;;4989204;28;21598;-66
2023/07/15 11:18:24;;;;;;;1.73;1.50;;;25.40;99.90;;;;;;4984591;28;20225;-66
2023/07/15 11:20:56;;;;;;;5.53;2.20;;;25.60;99.90;;;;;;4987472;28;20236;-66
2023/07/15 11:23:24;;;;;;;2.40;1.80;;;25.60;99.90;;;;;;4994363;28;20516;-65
2023/07/15 11:25:51;;;;;;;11.18;3.25;;;25.80;99.90;;;;;;4984997;28;20228;-66
2023/07/15 11:28:19;;;;;;;2.72;1.83;;;26.00;99.90;;;;;;5017473;28;20229;-66
2023/07/15 11:30:49;;;;;;;2.20;1.83;;;26.00;99.90;;;;;;4978246;28;20697;-66
2023/07/15 11:33:17;;;;;;;2.25;1.98;;;26.00;99.90;;;;;;4967746;28;20221;-66
2023/07/15 11:35:45;;;;;;;1.67;1.58;;;26.00;99.90;;;;;;4975174;28;20216;-66
2023/07/15 11:38:14;;;;;;;3.03;1.63;;;26.00;99.90;;;;;;5001645;28;20405;-67
2023/07/15 11:40:52;;;;;;;2.13;1.92;;;26.10;99.90;;;;;;4973207;28;20237;-66
2023/07/15 11:43:20;;;;;;;2.95;1.98;;;25.90;99.90;;;;;;5012802;28;20201;-66
2023/07/15 11:45:48;;;;;;;3.47;1.73;;;25.70;99.90;;;;;;4982773;28;20197;-66
2023/07/15 11:48:20;;;;;;;2.60;2.10;;;26.00;99.90;;;;;;4998206;28;20202;-66
2023/07/15 11:50:47;;;;;;;3.75;1.80;;;26.10;99.90;;;;;;4967336;28;20244;-66
2023/07/15 11:53:24;;;;;;;1.80;1.70;;;26.30;99.90;;;;;;4990940;28;20251;-66
2023/07/15 11:55:51;;;;;;;3.63;1.60;;;26.30;99.90;;;;;;4974836;28;20209;-66
2023/07/15 11:58:39;;;;;;;7.47;1.80;;;25.90;99.90;;;;;;4993334;28;20630;-66
2023/07/15 12:01:11;;;;;;;2.10;1.50;;;25.90;99.90;;;;;;4973053;28;28106;-66
2023/07/15 12:03:39;;;;;;;65.05;16.85;;;;;;;;;;4970926;28;20233;-66
2023/07/15 12:06:13;;;;;;;2.97;1.60;;;25.70;99.90;;;;;;4995734;28;20225;-66
2023/07/15 12:08:40;;;;;;;6.38;1.70;;;25.70;99.90;;;;;;4976091;28;20961;-67
2023/07/15 12:11:06;;;;;;;2.78;1.85;;;25.50;99.90;;;;;;4962465;28;20790;-66
2023/07/15 12:13:33;;;;;;;19.75;8.15;;;25.60;99.90;;;;;;5000891;28;20214;-66
2023/07/15 12:16:01;;;;;;;13.13;3.85;;;25.70;99.90;;;;;;4974318;28;20741;-66
2023/07/15 12:18:29;;;;;;;2.55;1.60;;;25.70;99.90;;;;;;4997030;28;20308;-66
2023/07/15 12:20:56;;;;;;;9.02;1.70;;;25.90;99.90;;;;;;4965619;28;20229;-67
2023/07/15 12:23:23;;;;;;;7.82;2.25;;;25.70;99.90;;;;;;4985580;28;22015;-66
2023/07/15 12:25:49;;;;;;;18.90;6.78;;;25.80;99.90;;;;;;4977894;28;20232;-66
2023/07/15 12:28:16;;;;;;;10.27;3.97;;;25.90;99.90;;;;;;5004470;28;20217;-66
2023/07/15 12:30:43;;;;;;;47.28;16.13;;;26.00;99.90;;;;;;4998003;28;20220;-66
2023/07/15 12:33:10;;;;;;;14.43;4.78;;;26.00;99.90;;;;;;4976685;28;20836;-67
2023/07/15 12:35:38;;;;;;;7.38;2.92;;;26.10;99.90;;;;;;4980289;28;20351;-67
2023/07/15 12:38:05;;;;;;;6.40;2.00;;;26.10;99.90;;;;;;4974378;28;20714;-66
2023/07/15 12:40:32;;;;;;;1.58;1.48;;;26.10;99.90;;;;;;4986892;28;20217;-66
2023/07/15 12:42:59;;;;;;;2.22;1.65;;;25.90;99.90;;;;;;4983538;28;20592;-66
2023/07/15 12:45:25;;;;;;;1.40;1.30;;;25.90;99.90;;;;;;5010998;28;20225;-66
2023/07/15 12:47:52;;;;;;;5.35;1.85;;;26.00;99.90;;;;;;4984780;28;20216;-66
2023/07/15 12:50:19;;;;;;;6.22;2.00;;;25.90;99.90;;;;;;4992878;28;20204;-66
2023/07/15 12:52:47;;;;;;;6.38;1.88;;;25.90;99.90;;;;;;4994380;28;20814;-66